createdAt,value
2019-01-26T00:09:13.520Z,39.10
2019-01-26T00:11:42.918Z,41.90
2019-01-26T00:14:12.409Z,41.77
2019-01-26T00:16:41.885Z,45.73
2019-01-26T00:19:11.393Z,52.10
2019-01-26T00:21:40.811Z,45.63
2019-01-26T00:24:10.208Z,41.47
2019-01-26T00:26:39.624Z,42.10
2019-01-26T00:29:09.023Z,44.47
2019-01-26T00:31:38.511Z,47.10
2019-01-26T00:34:07.978Z,43.73
2019-01-26T00:36:37.361Z,44.97
2019-01-26T00:39:08.923Z,42.87
2019-01-26T00:41:38.483Z,43.17
2019-01-26T00:44:07.873Z,45.93
2019-01-26T00:46:37.273Z,48.53
2019-01-26T00:49:06.941Z,53.30
2019-01-26T00:51:36.449Z,44.47
2019-01-26T00:54:05.925Z,47.90
2019-01-26T00:56:35.353Z,45.90
2019-01-26T00:59:05.029Z,51.23
2019-01-26T01:01:34.493Z,43.63
2019-01-26T01:04:04.496Z,43.23
2019-01-26T01:06:33.902Z,39.60
2019-01-26T01:09:04.854Z,40.47
2019-01-26T01:11:34.259Z,39.93
2019-01-26T01:14:03.741Z,41.27
2019-01-26T01:16:36.026Z,48.20
2019-01-26T01:19:04.409Z,47.20
2019-01-26T01:21:33.812Z,45.10
2019-01-26T01:24:03.316Z,46.20
2019-01-26T01:26:34.030Z,44.03
2019-01-26T01:29:03.592Z,45.53
2019-01-26T01:31:33.061Z,46.70
2019-01-26T01:34:02.452Z,42.87
2019-01-26T01:36:31.873Z,46.33
2019-01-26T01:39:01.270Z,38.37
2019-01-26T01:41:30.734Z,45.63
2019-01-26T01:44:00.166Z,49.33
2019-01-26T01:46:29.568Z,48.63
2019-01-26T01:48:59.046Z,45.10
2019-01-26T01:51:28.536Z,44.27
2019-01-26T01:53:57.954Z,46.83
2019-01-26T01:56:27.412Z,51.30
2019-01-26T01:58:56.820Z,53.97
2019-01-26T02:01:26.220Z,52.47
2019-01-26T02:03:55.703Z,46.73
2019-01-26T02:06:25.104Z,49.70
2019-01-26T02:08:54.505Z,49.17
2019-01-26T02:11:23.935Z,50.27
2019-01-26T02:13:53.341Z,50.00
2019-01-26T02:16:22.752Z,50.10
2019-01-26T02:18:52.337Z,53.30
2019-01-26T02:21:21.880Z,46.97
2019-01-26T02:23:51.300Z,50.93
2019-01-26T02:26:20.765Z,46.73
2019-01-26T02:28:50.191Z,47.80
2019-01-26T02:31:19.590Z,52.63
2019-01-26T02:33:49.006Z,44.93
2019-01-26T02:36:18.478Z,42.00
2019-01-26T02:38:47.974Z,45.97
2019-01-26T02:41:17.433Z,47.93
2019-01-26T02:43:46.829Z,48.40
2019-01-26T02:46:16.239Z,43.50
2019-01-26T02:48:45.734Z,45.90
2019-01-26T02:51:15.150Z,49.60
2019-01-26T02:53:44.592Z,46.47
2019-01-26T02:56:14.008Z,51.33
2019-01-26T02:58:43.434Z,47.37
2019-01-26T03:01:12.828Z,54.97
2019-01-26T03:03:42.712Z,49.13
2019-01-26T03:06:12.184Z,43.37
2019-01-26T03:08:41.772Z,52.77
2019-01-26T03:11:11.240Z,44.73
2019-01-26T03:13:40.668Z,56.30
2019-01-26T03:16:10.320Z,52.17
2019-01-26T03:18:39.738Z,61.97
2019-01-26T03:21:09.292Z,55.80
2019-01-26T03:23:38.863Z,50.93
2019-01-26T03:26:08.255Z,54.60
2019-01-26T03:28:37.669Z,49.40
2019-01-26T03:31:07.070Z,54.27
2019-01-26T03:33:36.505Z,51.23
2019-01-26T03:36:05.901Z,60.77
2019-01-26T03:38:35.295Z,53.40
2019-01-26T03:41:04.870Z,55.43
2019-01-26T03:43:34.423Z,54.67
2019-01-26T03:46:04.197Z,51.57
2019-01-26T03:48:33.674Z,48.80
2019-01-26T03:51:03.150Z,48.50
2019-01-26T03:53:32.557Z,55.67
2019-01-26T03:56:02.036Z,57.43
2019-01-26T03:58:32.894Z,56.00
2019-01-26T04:01:02.444Z,52.47
2019-01-26T04:03:31.990Z,53.87
2019-01-26T04:06:01.666Z,58.17
2019-01-26T04:08:31.132Z,50.90
2019-01-26T04:11:00.596Z,55.43
2019-01-26T04:13:29.978Z,53.60
2019-01-26T04:15:59.460Z,55.63
2019-01-26T04:18:28.866Z,54.83
2019-01-26T04:20:58.266Z,52.73
2019-01-26T04:23:27.668Z,54.70
2019-01-26T04:25:57.083Z,61.27
2019-01-26T04:28:26.469Z,57.77
2019-01-26T04:30:55.981Z,49.27
2019-01-26T04:33:25.446Z,58.07
2019-01-26T04:35:54.873Z,58.83
2019-01-26T04:38:24.602Z,53.63
2019-01-26T04:40:54.001Z,54.67
2019-01-26T04:43:23.409Z,53.73
2019-01-26T04:45:52.814Z,51.07
2019-01-26T04:48:22.254Z,60.97
2019-01-26T04:50:51.663Z,56.70
2019-01-26T04:53:21.077Z,55.40
2019-01-26T04:55:50.561Z,62.23
2019-01-26T04:58:19.951Z,65.30
2019-01-26T05:00:49.384Z,55.47
2019-01-26T05:03:18.761Z,54.13
2019-01-26T05:05:48.547Z,60.07
2019-01-26T05:08:17.937Z,58.90
2019-01-26T05:10:47.405Z,60.10
2019-01-26T05:13:16.836Z,62.00
2019-01-26T05:15:46.217Z,55.10
2019-01-26T05:18:15.655Z,65.30
2019-01-26T05:20:45.411Z,56.50
2019-01-26T05:23:14.990Z,66.37
2019-01-26T05:25:44.385Z,69.83
2019-01-26T05:28:13.780Z,62.93
2019-01-26T05:30:43.240Z,64.37
2019-01-26T05:33:12.636Z,66.67
2019-01-26T05:35:42.034Z,71.73
2019-01-26T05:38:11.451Z,65.47
2019-01-26T05:40:40.834Z,54.03
2019-01-26T05:43:10.304Z,60.30
2019-01-26T05:45:39.745Z,61.10
2019-01-26T05:48:09.219Z,61.23
2019-01-26T05:50:38.652Z,60.67
2019-01-26T05:53:08.096Z,60.70
2019-01-26T05:55:37.493Z,65.40
2019-01-26T05:58:06.900Z,59.73
2019-01-26T06:00:36.826Z,59.83
2019-01-26T06:03:06.237Z,56.90
2019-01-26T06:05:35.791Z,65.87
2019-01-26T06:08:05.508Z,63.07
2019-01-26T06:10:35.087Z,57.53
2019-01-26T06:13:04.683Z,60.50
2019-01-26T06:15:34.073Z,60.27
2019-01-26T06:18:03.632Z,68.37
2019-01-26T06:20:33.093Z,70.87
2019-01-26T06:23:02.592Z,60.00
2019-01-26T06:25:32.060Z,67.37
2019-01-26T06:28:01.557Z,71.23
2019-01-26T06:30:31.086Z,64.50
2019-01-26T06:33:00.579Z,67.73
2019-01-26T06:35:29.966Z,73.20
2019-01-26T06:37:59.450Z,60.50
2019-01-26T06:40:28.841Z,62.67
2019-01-26T06:42:58.280Z,67.10
2019-01-26T06:45:27.675Z,61.53
2019-01-26T06:48:02.068Z,74.13
2019-01-26T06:50:29.175Z,68.97
2019-01-26T06:52:58.622Z,86.83
2019-01-26T06:55:28.002Z,72.90
2019-01-26T06:57:57.482Z,73.40
2019-01-26T07:00:31.442Z,64.10
2019-01-26T07:03:00.924Z,70.53
2019-01-26T07:05:48.239Z,82.57
2019-01-26T07:08:19.296Z,67.60
2019-01-26T07:10:48.845Z,73.57
2019-01-26T07:13:18.262Z,77.07
2019-01-26T07:15:47.855Z,72.53
2019-01-26T07:18:17.340Z,93.20
2019-01-26T07:20:46.912Z,77.80
2019-01-26T07:23:16.635Z,88.20
2019-01-26T07:25:46.055Z,79.33
2019-01-26T07:28:15.468Z,79.23
2019-01-26T07:30:44.872Z,72.17
2019-01-26T07:33:14.381Z,86.10
2019-01-26T07:35:43.876Z,85.53
2019-01-26T07:38:13.896Z,74.37
2019-01-26T07:40:43.697Z,94.67
2019-01-26T07:43:13.289Z,92.27
2019-01-26T07:45:42.710Z,80.00
2019-01-26T07:48:16.748Z,89.57
2019-01-26T07:50:43.221Z,67.73
2019-01-26T07:53:12.617Z,81.47
2019-01-26T07:55:42.051Z,76.47
2019-01-26T07:58:11.509Z,83.40
2019-01-26T08:00:40.946Z,70.77
2019-01-26T08:03:10.509Z,60.47
2019-01-26T08:05:39.921Z,64.77
2019-01-26T08:08:09.349Z,64.87
2019-01-26T08:10:38.821Z,61.33
2019-01-26T08:13:08.372Z,69.57
2019-01-26T08:15:38.761Z,62.43
2019-01-26T08:18:09.386Z,54.33
2019-01-26T08:20:38.903Z,67.27
2019-01-26T08:23:08.388Z,61.67
2019-01-26T08:25:37.891Z,64.70
2019-01-26T08:28:07.315Z,60.57
2019-01-26T08:30:36.886Z,53.30
2019-01-26T08:33:06.375Z,56.30
2019-01-26T08:35:35.784Z,56.23
2019-01-26T08:38:05.661Z,58.27
2019-01-26T08:40:35.184Z,53.50
2019-01-26T08:43:04.894Z,62.53
2019-01-26T08:45:34.331Z,68.80
2019-01-26T08:48:04.078Z,59.73
2019-01-26T08:50:33.556Z,75.37
2019-01-26T08:53:02.959Z,52.73
2019-01-26T08:55:32.542Z,52.80
2019-01-26T08:58:02.230Z,47.23
2019-01-26T09:00:31.723Z,53.97
2019-01-26T09:03:20.282Z,52.83
2019-01-26T09:06:14.644Z,62.67
2019-01-26T09:08:44.128Z,50.43
2019-01-26T09:11:13.627Z,58.10
2019-01-26T09:13:43.022Z,54.70
2019-01-26T09:16:12.492Z,55.80
2019-01-26T09:18:41.914Z,55.27
2019-01-26T09:21:11.334Z,59.23
2019-01-26T09:23:40.796Z,60.70
2019-01-26T09:26:10.296Z,68.00
2019-01-26T09:28:39.722Z,84.60
2019-01-26T09:31:09.240Z,66.00
2019-01-26T09:33:38.779Z,64.50
2019-01-26T09:36:08.250Z,84.50
2019-01-26T09:38:37.766Z,72.57
2019-01-26T09:41:07.237Z,74.10
2019-01-26T09:43:36.727Z,60.57
2019-01-26T09:46:06.418Z,76.77
2019-01-26T09:48:35.841Z,63.23
2019-01-26T09:51:05.406Z,76.40
2019-01-26T09:53:34.887Z,58.50
2019-01-26T09:56:04.443Z,69.63
2019-01-26T09:58:34.213Z,68.77
2019-01-26T10:01:04.109Z,96.87
2019-01-26T10:03:33.587Z,63.27
2019-01-26T10:06:03.046Z,62.73
2019-01-26T10:08:32.612Z,58.33
2019-01-26T10:11:02.107Z,82.97
2019-01-26T10:13:31.497Z,68.13
2019-01-26T10:16:01.001Z,65.63
2019-01-26T10:18:30.464Z,66.23
2019-01-26T10:20:59.961Z,60.70
2019-01-26T10:23:29.473Z,56.50
2019-01-26T10:25:58.981Z,51.03
2019-01-26T10:28:28.628Z,57.80
2019-01-26T10:31:03.380Z,61.70
2019-01-26T10:33:32.821Z,54.30
2019-01-26T10:36:21.344Z,62.70
2019-01-26T10:39:02.431Z,57.90
2019-01-26T10:42:02.958Z,62.03
2019-01-26T10:44:33.770Z,57.00
2019-01-26T10:47:04.191Z,52.80
2019-01-26T10:49:33.843Z,52.23
2019-01-26T10:52:03.478Z,50.97
2019-01-26T10:54:32.998Z,45.00
2019-01-26T10:57:02.460Z,51.00
2019-01-26T10:59:31.992Z,34.73
2019-01-26T11:02:01.427Z,46.37
2019-01-26T11:04:30.912Z,43.37
2019-01-26T11:07:00.412Z,33.97
2019-01-26T11:09:29.901Z,43.97
2019-01-26T11:11:59.450Z,38.57
2019-01-26T11:14:28.958Z,34.70
2019-01-26T11:16:58.378Z,40.83
2019-01-26T11:19:27.823Z,47.57
2019-01-26T11:21:57.325Z,38.57
2019-01-26T11:24:26.814Z,38.17
2019-01-26T11:26:56.430Z,40.17
2019-01-26T11:29:25.865Z,38.70
2019-01-26T11:31:55.292Z,34.90
2019-01-26T11:34:24.813Z,34.37
2019-01-26T11:36:54.231Z,37.87
2019-01-26T11:39:23.717Z,34.23
2019-01-26T11:41:53.314Z,29.93
2019-01-26T11:44:22.746Z,34.50
2019-01-26T11:47:00.491Z,39.47
2019-01-26T11:49:30.016Z,39.30
2019-01-26T11:52:09.662Z,31.50
2019-01-26T11:55:05.255Z,39.47
2019-01-26T11:57:36.946Z,40.23
2019-01-26T12:00:32.408Z,35.87
2019-01-26T12:03:16.175Z,31.23
2019-01-26T12:05:51.822Z,32.70
2019-01-26T12:08:21.242Z,41.03
2019-01-26T12:10:50.659Z,32.73
2019-01-26T12:13:20.288Z,30.40
2019-01-26T12:15:49.806Z,34.90
2019-01-26T12:18:19.351Z,27.57
2019-01-26T12:20:48.767Z,31.53
2019-01-26T12:23:18.218Z,28.93
2019-01-26T12:25:47.650Z,23.33
2019-01-26T12:28:17.138Z,29.07
2019-01-26T12:30:46.588Z,22.33
2019-01-26T12:33:16.155Z,30.20
2019-01-26T12:35:45.686Z,20.20
2019-01-26T12:38:15.168Z,24.77
2019-01-26T12:40:44.782Z,20.43
2019-01-26T12:43:14.356Z,20.90
2019-01-26T12:45:43.858Z,21.93
2019-01-26T12:48:13.565Z,16.77
2019-01-26T12:50:42.994Z,24.73
2019-01-26T12:53:12.521Z,23.53
2019-01-26T12:55:42.162Z,26.37
2019-01-26T12:58:11.734Z,28.27
2019-01-26T13:00:41.411Z,24.23
2019-01-26T13:03:10.870Z,19.40
2019-01-26T13:05:40.282Z,20.23
2019-01-26T13:08:10.042Z,19.67
2019-01-26T13:10:43.437Z,19.50
2019-01-26T13:13:13.003Z,23.83
2019-01-26T13:15:42.605Z,17.63
2019-01-26T13:18:12.252Z,17.47
2019-01-26T13:20:41.878Z,17.53
2019-01-26T13:23:11.523Z,16.27
2019-01-26T13:25:41.074Z,18.33
2019-01-26T13:28:10.601Z,13.27
2019-01-26T13:30:40.008Z,14.70
2019-01-26T13:33:09.393Z,12.97
2019-01-26T13:35:38.827Z,18.13
2019-01-26T13:38:08.343Z,15.60
2019-01-26T13:40:37.768Z,12.63
2019-01-26T13:43:07.181Z,18.13
2019-01-26T13:45:36.625Z,14.87
2019-01-26T13:48:06.114Z,11.83
2019-01-26T13:50:35.554Z,12.53
2019-01-26T13:53:05.119Z,15.17
2019-01-26T13:55:34.564Z,13.70
2019-01-26T13:58:04.322Z,12.57
2019-01-26T14:00:33.937Z,13.57
2019-01-26T14:03:03.518Z,16.23
2019-01-26T14:05:33.139Z,12.77
2019-01-26T14:08:02.579Z,13.53
2019-01-26T14:10:32.023Z,20.00
2019-01-26T14:13:01.480Z,10.03
2019-01-26T14:15:30.954Z,9.07
2019-01-26T14:18:00.345Z,9.93
2019-01-26T14:20:29.846Z,9.67
2019-01-26T14:22:59.380Z,10.20
2019-01-26T14:25:28.868Z,14.53
2019-01-26T14:27:58.410Z,10.47
2019-01-26T14:30:34.115Z,10.67
2019-01-26T14:33:03.629Z,8.73
2019-01-26T14:35:33.042Z,9.57
2019-01-26T14:38:02.546Z,12.67
2019-01-26T14:40:32.089Z,10.23
2019-01-26T14:43:01.544Z,10.67
2019-01-26T14:45:31.016Z,12.23
2019-01-26T14:48:00.484Z,13.60
2019-01-26T14:50:29.985Z,10.30
2019-01-26T14:52:59.443Z,8.90
2019-01-26T14:55:29.060Z,9.57
2019-01-26T14:57:59.839Z,9.73
2019-01-26T15:00:31.133Z,13.80
2019-01-26T15:03:00.556Z,10.87
2019-01-26T15:05:30.629Z,15.30
2019-01-26T15:08:00.465Z,9.30
2019-01-26T15:10:29.923Z,10.90
2019-01-26T15:12:59.457Z,11.87
2019-01-26T15:15:28.931Z,12.93
2019-01-26T15:17:58.483Z,13.97
2019-01-26T15:20:30.490Z,13.60
2019-01-26T15:23:00.254Z,16.57
2019-01-26T15:25:29.806Z,12.37
2019-01-26T15:27:59.283Z,14.33
2019-01-26T15:30:31.365Z,13.60
2019-01-26T15:33:00.986Z,13.10
2019-01-26T15:35:30.522Z,14.17
2019-01-26T15:38:00.072Z,15.63
2019-01-26T15:40:29.532Z,13.83
2019-01-26T15:42:59.099Z,11.87
2019-01-26T15:45:34.320Z,14.80
2019-01-26T15:48:03.973Z,16.00
2019-01-26T15:50:33.489Z,17.00
2019-01-26T15:53:03.039Z,13.87
2019-01-26T15:55:32.657Z,15.47
2019-01-26T15:58:02.371Z,17.27
2019-01-26T16:00:34.141Z,17.27
2019-01-26T16:03:03.797Z,15.57
2019-01-26T16:05:33.432Z,16.07
2019-01-26T16:08:03.114Z,16.73
2019-01-26T16:10:32.576Z,16.50
2019-01-26T16:13:02.122Z,20.27
2019-01-26T16:15:32.535Z,21.60
2019-01-26T16:18:02.199Z,21.63
2019-01-26T16:20:31.704Z,19.93
2019-01-26T16:23:09.357Z,17.40
2019-01-26T16:25:37.068Z,17.13
2019-01-26T16:28:06.712Z,21.63
2019-01-26T16:30:36.565Z,26.53
2019-01-26T16:33:06.127Z,18.80
2019-01-26T16:35:35.905Z,21.53
2019-01-26T16:38:05.771Z,24.90
2019-01-26T16:40:37.523Z,26.37
2019-01-26T16:43:07.063Z,22.33
2019-01-26T16:45:38.143Z,18.77
2019-01-26T16:48:10.351Z,22.20
2019-01-26T16:50:39.798Z,20.73
2019-01-26T16:53:09.604Z,20.43
2019-01-26T16:55:39.255Z,23.47
2019-01-26T16:58:08.802Z,25.83
2019-01-26T17:00:43.819Z,28.07
2019-01-26T17:03:13.623Z,22.90
2019-01-26T17:05:43.564Z,19.70
2019-01-26T17:08:13.621Z,27.77
2019-01-26T17:10:45.508Z,24.37
2019-01-26T17:13:15.187Z,31.93
2019-01-26T17:15:44.631Z,28.53
2019-01-26T17:18:14.395Z,22.70
2019-01-26T17:20:44.664Z,24.83
2019-01-26T17:23:14.136Z,22.37
2019-01-26T17:25:43.660Z,35.80
2019-01-26T17:28:13.247Z,25.13
2019-01-26T17:30:43.662Z,27.90
2019-01-26T17:33:13.317Z,27.07
2019-01-26T17:35:43.230Z,26.97
2019-01-26T17:38:12.927Z,26.37
2019-01-26T17:40:42.535Z,32.50
2019-01-26T17:43:12.105Z,37.07
2019-01-26T17:45:41.644Z,37.07
2019-01-26T17:48:11.373Z,33.37
2019-01-26T17:50:42.250Z,35.93
2019-01-26T17:53:12.215Z,41.03
2019-01-26T17:55:42.044Z,41.33
2019-01-26T17:58:11.798Z,40.97
2019-01-26T18:01:06.530Z,38.33
2019-01-26T18:03:37.435Z,27.17
2019-01-26T18:06:06.942Z,35.13
2019-01-26T18:08:36.412Z,40.03
2019-01-26T18:11:06.342Z,25.63
2019-01-26T18:13:35.964Z,28.20
2019-01-26T18:16:06.030Z,31.80
2019-01-26T18:18:35.884Z,30.27
2019-01-26T18:21:05.527Z,34.90
2019-01-26T18:23:35.407Z,28.70
2019-01-26T18:26:05.735Z,41.33
2019-01-26T18:28:38.298Z,31.90
2019-01-26T18:31:07.968Z,34.93
2019-01-26T18:33:37.552Z,31.57
2019-01-26T18:36:08.658Z,30.23
2019-01-26T18:38:39.371Z,37.80
2019-01-26T18:41:09.012Z,29.37
2019-01-26T18:43:40.344Z,31.57
2019-01-26T18:46:10.073Z,38.00
2019-01-26T18:48:41.038Z,36.70
2019-01-26T18:51:11.847Z,28.87
2019-01-26T18:53:42.663Z,31.37
2019-01-26T18:56:13.602Z,31.03
2019-01-26T18:58:44.455Z,30.83
2019-01-26T19:01:14.344Z,28.37
2019-01-26T19:04:27.351Z,40.43
2019-01-26T19:06:56.972Z,33.70
2019-01-26T19:09:28.707Z,25.03
2019-01-26T19:11:59.580Z,29.50
2019-01-26T19:14:29.547Z,28.53
2019-01-26T19:16:59.751Z,61.37
2019-01-26T19:19:29.368Z,26.90
2019-01-26T19:21:58.943Z,28.80
2019-01-26T19:24:29.075Z,31.67
2019-01-26T19:26:58.684Z,24.43
2019-01-26T19:29:30.726Z,24.67
2019-01-26T19:32:00.362Z,31.43
2019-01-26T19:34:30.273Z,27.70
2019-01-26T19:37:00.108Z,31.27
2019-01-26T19:39:29.640Z,36.37
2019-01-26T19:41:59.536Z,26.93
2019-01-26T19:44:31.517Z,22.33
2019-01-26T19:47:01.718Z,30.27
2019-01-26T19:49:31.243Z,22.60
2019-01-26T19:52:01.678Z,27.50
2019-01-26T19:54:32.593Z,27.10
2019-01-26T19:57:04.468Z,22.50
2019-01-26T19:59:38.548Z,26.77
2019-01-26T20:02:08.219Z,23.17
2019-01-26T20:04:40.970Z,19.90
2019-01-26T20:07:11.767Z,17.83
2019-01-26T20:09:43.254Z,19.67
2019-01-26T20:12:13.082Z,18.73
2019-01-26T20:14:43.345Z,19.23
2019-01-26T20:17:17.150Z,23.27
2019-01-26T20:19:46.759Z,20.73
2019-01-26T20:22:16.879Z,22.43
2019-01-26T20:24:47.127Z,22.93
2019-01-26T20:27:19.043Z,17.40
2019-01-26T20:29:52.861Z,20.47
2019-01-26T20:32:23.273Z,18.90
2019-01-26T20:34:54.927Z,20.60
2019-01-26T20:37:25.997Z,19.63
2019-01-26T20:39:55.595Z,24.60
2019-01-26T20:42:25.462Z,23.33
2019-01-26T20:44:55.071Z,23.13
2019-01-26T20:47:26.191Z,29.30
2019-01-26T20:49:56.211Z,21.33
2019-01-26T20:52:27.636Z,23.47
2019-01-26T20:54:58.098Z,20.97
2019-01-26T20:57:27.957Z,22.57
2019-01-26T20:59:58.072Z,19.07
2019-01-26T21:02:29.565Z,18.80
2019-01-26T21:05:00.655Z,20.13
2019-01-26T21:07:31.726Z,19.53
2019-01-26T21:10:02.549Z,18.60
2019-01-26T21:12:32.242Z,17.57
2019-01-26T21:15:05.687Z,20.73
2019-01-26T21:17:35.272Z,19.20
2019-01-26T21:20:06.921Z,15.03
2019-01-26T21:22:36.446Z,18.33
2019-01-26T21:25:08.100Z,21.80
2019-01-26T21:27:39.111Z,14.43
2019-01-26T21:30:19.006Z,15.07
2019-01-26T21:32:48.713Z,16.67
2019-01-26T21:35:25.689Z,15.97
2019-01-26T21:37:59.572Z,17.70
2019-01-26T21:40:30.979Z,17.53
2019-01-26T21:43:01.662Z,17.43
2019-01-26T21:45:31.731Z,20.63
2019-01-26T21:48:01.367Z,19.20
2019-01-26T21:50:31.588Z,20.67
2019-01-26T21:53:01.163Z,27.13
2019-01-26T21:55:30.743Z,23.57
2019-01-26T21:58:00.289Z,21.87
2019-01-26T22:00:31.907Z,28.03
2019-01-26T22:03:02.230Z,25.60
2019-01-26T22:05:32.124Z,21.40
2019-01-26T22:08:01.861Z,28.10
2019-01-26T22:10:31.410Z,26.80
2019-01-26T22:13:01.341Z,21.47
2019-01-26T22:15:30.931Z,25.67
2019-01-26T22:18:00.520Z,25.70
2019-01-26T22:20:30.257Z,24.17
2019-01-26T22:22:59.768Z,27.47
2019-01-26T22:25:29.490Z,28.63
2019-01-26T22:28:00.810Z,30.03
2019-01-26T22:30:35.019Z,31.97
2019-01-26T22:33:05.821Z,27.90
2019-01-26T22:35:37.394Z,33.33
2019-01-26T22:38:06.926Z,36.67
2019-01-26T22:40:37.325Z,30.47
2019-01-26T22:43:08.931Z,41.57
2019-01-26T22:45:38.407Z,43.57
2019-01-26T22:48:08.046Z,40.73
2019-01-26T22:50:37.474Z,41.93
2019-01-26T22:53:06.936Z,40.77
2019-01-26T22:55:36.448Z,42.03
2019-01-26T22:58:06.115Z,44.87
2019-01-26T23:01:11.974Z,43.90
2019-01-26T23:04:00.463Z,40.97
2019-01-26T23:06:41.602Z,46.40
2019-01-26T23:09:24.544Z,43.20
2019-01-26T23:12:23.028Z,57.33
2019-01-26T23:15:35.229Z,45.97
2019-01-26T23:18:30.856Z,47.27
2019-01-26T23:21:43.811Z,44.87
2019-01-26T23:24:38.475Z,41.93
2019-01-26T23:27:39.894Z,49.40
2019-01-26T23:30:45.317Z,46.43
2019-01-26T23:33:14.877Z,47.37
2019-01-26T23:35:44.440Z,44.03
2019-01-26T23:38:13.864Z,47.50
2019-01-26T23:40:43.284Z,44.47
2019-01-26T23:43:12.802Z,48.50
2019-01-26T23:45:42.251Z,41.30
2019-01-26T23:48:11.671Z,40.40
2019-01-26T23:50:41.073Z,38.67
2019-01-26T23:53:10.589Z,41.93
2019-01-26T23:55:39.987Z,38.00
2019-01-26T23:58:09.585Z,37.37
